Time;durP1;ratioP1;P1;durP2;ratioP2;P2;SDS_P1;SDS_P2;PMS_P1;PMS_P2;Temp;Humidity;BMP_temperature;BMP_pressure;BME280_temperature;BME280_humidity;BME280_pressure;Samples;Min_cycle;Max_cycle;Signal;HPM_P1;HPM_P2
2022/12/31 00:02:04;;;;;;;7.72;3.70;;;11.50;99.90;;;;;;4968076;28;20074;-80
2022/12/31 00:04:30;;;;;;;10.00;3.90;;;11.50;99.90;;;;;;4969643;28;20050;-81
2022/12/31 00:06:56;;;;;;;5.72;3.13;;;11.50;99.90;;;;;;4985373;28;20042;-80
2022/12/31 00:09:21;;;;;;;5.07;2.88;;;11.50;99.90;;;;;;4980427;28;20070;-80
2022/12/31 00:11:47;;;;;;;5.75;2.90;;;11.50;99.90;;;;;;4964164;28;20049;-80
2022/12/31 00:14:13;;;;;;;7.50;2.97;;;11.50;99.90;;;;;;4972928;28;20046;-80
2022/12/31 00:16:40;;;;;;;5.35;3.17;;;11.50;99.90;;;;;;4973853;28;20152;-81
2022/12/31 00:19:08;;;;;;;6.72;3.50;;;11.50;99.90;;;;;;4962267;28;20042;-80
2022/12/31 00:21:35;;;;;;;5.18;3.63;;;11.50;99.90;;;;;;4955434;28;20046;-81
2022/12/31 00:24:02;;;;;;;6.93;3.90;;;11.50;99.90;;;;;;4970721;28;20047;-81
2022/12/31 00:26:30;;;;;;;7.85;4.93;;;11.50;99.90;;;;;;4971892;28;20041;-80
2022/12/31 00:28:57;;;;;;;6.25;4.90;;;11.50;99.90;;;;;;4990146;28;20092;-80
2022/12/31 00:31:29;;;;;;;7.60;4.97;;;11.50;99.90;;;;;;4970031;28;20088;-80
2022/12/31 00:33:56;;;;;;;5.85;5.35;;;11.60;99.90;;;;;;4980310;28;20050;-81
2022/12/31 00:36:24;;;;;;;8.07;5.53;;;11.50;99.90;;;;;;4955010;28;20562;-80
2022/12/31 00:38:52;;;;;;;7.63;5.78;;;11.50;99.90;;;;;;4963092;28;20070;-82
2022/12/31 00:41:18;;;;;;;8.20;5.82;;;11.50;99.90;;;;;;4958484;28;20878;-80
2022/12/31 00:43:45;;;;;;;9.00;5.93;;;11.50;99.90;;;;;;4977336;28;20534;-80
2022/12/31 00:46:11;;;;;;;6.25;4.88;;;11.50;99.90;;;;;;4975095;28;20042;-80
2022/12/31 00:48:37;;;;;;;8.60;5.75;;;11.50;99.90;;;;;;4968519;28;20100;-79
2022/12/31 00:51:06;;;;;;;6.20;5.60;;;11.50;99.90;;;;;;4980252;28;20484;-81
2022/12/31 00:53:32;;;;;;;11.10;5.80;;;11.50;99.90;;;;;;4994245;28;20045;-80
2022/12/31 00:56:06;;;;;;;9.88;5.65;;;11.60;99.90;;;;;;4945327;28;20050;-80
2022/12/31 00:58:32;;;;;;;9.48;6.72;;;11.60;99.90;;;;;;4994471;28;20058;-82
2022/12/31 01:01:06;;;;;;;7.68;6.20;;;11.60;99.90;;;;;;5008099;28;20049;-80
2022/12/31 01:03:32;;;;;;;9.23;6.50;;;11.60;99.90;;;;;;4983344;28;20058;-80
2022/12/31 01:05:58;;;;;;;9.77;5.82;;;11.60;99.90;;;;;;4988251;28;20092;-79
2022/12/31 01:08:24;;;;;;;10.60;6.25;;;11.60;99.90;;;;;;4981510;28;20068;-80
2022/12/31 01:13:34;;;;;;;9.23;6.30;;;11.60;99.90;;;;;;4995109;28;20526;-80
2022/12/31 01:16:07;;;;;;;12.80;6.28;;;11.60;99.90;;;;;;4957535;28;20073;-80
2022/12/31 01:18:32;;;;;;;9.45;5.97;;;11.60;99.90;;;;;;4976053;28;20054;-79
2022/12/31 01:21:02;;;;;;;11.75;7.35;;;11.60;99.90;;;;;;4979455;28;20848;-81
2022/12/31 01:23:28;;;;;;;17.20;7.45;;;11.60;99.90;;;;;;4979452;28;20502;-79
2022/12/31 01:25:53;;;;;;;15.05;7.47;;;11.60;99.90;;;;;;4978090;28;20084;-82
2022/12/31 01:28:19;;;;;;;12.82;7.45;;;11.60;99.90;;;;;;4975803;28;20045;-83
2022/12/31 01:30:45;;;;;;;17.15;8.57;;;11.60;99.90;;;;;;4959066;28;20049;-79
2022/12/31 01:33:11;;;;;;;11.60;6.75;;;11.60;99.90;;;;;;4991286;28;20170;-80
2022/12/31 01:35:36;;;;;;;11.48;7.18;;;11.60;99.90;;;;;;4974846;28;20136;-83
2022/12/31 01:38:02;;;;;;;10.60;6.80;;;11.50;99.90;;;;;;4979403;28;20038;-80
2022/12/31 01:40:28;;;;;;;11.45;7.25;;;11.50;99.90;;;;;;4976026;28;20461;-80
2022/12/31 01:42:55;;;;;;;19.05;10.05;;;11.50;99.90;;;;;;4978030;28;20411;-80
2022/12/31 01:45:21;;;;;;;14.05;7.38;;;11.50;99.90;;;;;;4979193;28;20042;-79
2022/12/31 01:47:56;;;;;;;10.98;6.53;;;11.50;99.90;;;;;;4966498;28;20136;-79
2022/12/31 01:50:28;;;;;;;12.75;6.20;;;11.50;99.90;;;;;;4991671;28;20522;-80
2022/12/31 01:52:59;;;;;;;12.10;7.00;;;11.40;99.90;;;;;;4978743;28;20144;-79
2022/12/31 01:55:36;;;;;;;10.30;6.68;;;11.50;99.90;;;;;;4991705;28;20100;-85
2022/12/31 01:58:29;;;;;;;13.27;7.32;;;11.40;99.90;;;;;;4995080;28;20141;-80
2022/12/31 02:00:57;;;;;;;12.85;6.90;;;11.40;99.90;;;;;;4992516;28;20058;-80
2022/12/31 02:03:25;;;;;;;14.35;6.72;;;11.40;99.90;;;;;;4976791;28;20487;-80
2022/12/31 02:06:00;;;;;;;8.32;5.75;;;11.40;99.90;;;;;;4975011;28;20046;-79
2022/12/31 02:08:25;;;;;;;12.23;5.95;;;11.40;99.90;;;;;;4992177;28;20559;-84
2022/12/31 02:10:51;;;;;;;13.93;7.93;;;11.40;99.90;;;;;;4974898;28;20124;-80
2022/12/31 02:13:20;;;;;;;10.93;6.70;;;11.40;99.90;;;;;;4976564;28;20038;-80
2022/12/31 02:16:04;;;;;;;12.68;6.60;;;11.40;99.90;;;;;;4986852;28;20767;-80
2022/12/31 02:18:51;;;;;;;16.20;9.13;;;11.40;99.90;;;;;;4991872;28;20128;-85
2022/12/31 02:21:39;;;;;;;14.98;7.35;;;11.40;99.90;;;;;;4983000;28;20499;-81
2022/12/31 02:24:17;;;;;;;10.27;6.18;;;11.40;99.90;;;;;;4993254;28;20054;-81
2022/12/31 02:27:04;;;;;;;12.05;6.40;;;11.30;99.90;;;;;;4996919;28;20049;-82
2022/12/31 02:29:45;;;;;;;10.55;7.15;;;11.30;99.90;;;;;;4988904;28;20495;-82
2022/12/31 02:32:46;;;;;;;9.07;5.53;;;11.30;99.90;;;;;;4991857;28;20554;-80
2022/12/31 02:35:23;;;;;;;11.70;6.53;;;11.30;99.90;;;;;;4991122;28;20511;-80
2022/12/31 02:37:53;;;;;;;14.60;6.47;;;11.20;99.90;;;;;;4976734;28;20042;-80
2022/12/31 02:40:21;;;;;;;10.05;5.53;;;11.20;99.90;;;;;;4996564;28;20056;-80
2022/12/31 02:42:47;;;;;;;12.02;6.38;;;11.10;99.90;;;;;;4944936;28;20050;-80
2022/12/31 02:45:18;;;;;;;8.00;5.57;;;11.10;99.90;;;;;;4973598;28;20146;-80
2022/12/31 02:47:47;;;;;;;7.13;4.60;;;11.10;99.90;;;;;;4977162;28;20517;-80
2022/12/31 02:50:20;;;;;;;8.55;5.30;;;11.10;99.90;;;;;;4976128;28;20555;-79
2022/12/31 02:53:20;;;;;;;7.78;4.78;;;11.10;99.90;;;;;;4993035;28;20053;-79
2022/12/31 02:56:09;;;;;;;9.02;4.50;;;11.10;99.90;;;;;;4984414;28;20133;-79
2022/12/31 03:04:35;;;;;;;5.97;4.05;;;11.00;99.90;;;;;;4992140;28;20061;-85
2022/12/31 03:07:09;;;;;;;8.57;3.50;;;11.00;99.90;;;;;;4974822;28;20050;-84
2022/12/31 03:09:36;;;;;;;5.30;3.08;;;10.90;99.90;;;;;;5001101;28;20407;-83
2022/12/31 03:14:48;;;;;;;7.18;2.53;;;10.90;99.90;;;;;;4986955;28;20088;-82
2022/12/31 03:17:14;;;;;;;4.68;2.20;;;10.80;99.90;;;;;;4970118;28;20050;-80
2022/12/31 03:22:27;;;;;;;2.80;1.85;;;10.80;99.90;;;;;;4998882;28;20050;-79
2022/12/31 03:27:53;;;;;;;4.65;1.63;;;10.70;99.90;;;;;;4984369;28;20132;-80
2022/12/31 03:30:20;;;;;;;5.32;1.90;;;10.70;99.90;;;;;;4996670;28;20125;-80
2022/12/31 03:32:47;;;;;;;7.22;1.85;;;10.60;99.90;;;;;;4991422;28;20050;-80
2022/12/31 03:35:14;;;;;;;6.20;1.40;;;10.60;99.90;;;;;;4975221;28;20788;-79
2022/12/31 03:37:40;;;;;;;4.60;1.58;;;10.60;99.90;;;;;;4956700;28;20050;-80
2022/12/31 03:40:09;;;;;;;3.00;1.35;;;10.60;99.90;;;;;;4991775;28;20080;-79
2022/12/31 03:42:34;;;;;;;3.50;1.15;;;10.50;99.90;;;;;;5004539;28;20062;-79
2022/12/31 03:45:00;;;;;;;5.30;1.27;;;10.50;99.90;;;;;;4989035;28;20053;-79
2022/12/31 03:47:26;;;;;;;6.28;1.42;;;10.50;99.90;;;;;;4942164;28;20082;-79
2022/12/31 03:49:52;;;;;;;3.95;1.42;;;10.50;99.90;;;;;;4975627;28;20096;-80
2022/12/31 03:52:17;;;;;;;6.00;1.40;;;10.50;99.90;;;;;;4976392;28;20050;-79
2022/12/31 03:54:43;;;;;;;3.63;1.23;;;10.50;99.90;;;;;;4985407;28;20042;-79
2022/12/31 03:57:09;;;;;;;4.18;1.40;;;10.50;99.90;;;;;;4965484;28;20084;-80
2022/12/31 03:59:34;;;;;;;9.25;1.50;;;10.50;99.90;;;;;;4959088;28;20492;-79
2022/12/31 04:02:00;;;;;;;7.00;1.88;;;10.50;99.90;;;;;;4958573;28;20046;-79
2022/12/31 04:04:26;;;;;;;4.32;1.45;;;10.50;99.90;;;;;;4991004;28;20133;-80
2022/12/31 04:06:52;;;;;;;5.20;1.67;;;10.50;99.90;;;;;;4952037;28;20052;-79
2022/12/31 04:09:18;;;;;;;7.18;1.83;;;10.50;99.90;;;;;;4984537;28;20125;-83
2022/12/31 04:11:44;;;;;;;9.13;2.40;;;10.50;99.90;;;;;;4976625;28;20125;-82
2022/12/31 04:14:10;;;;;;;5.95;2.50;;;10.50;99.90;;;;;;4991030;28;20042;-79
2022/12/31 04:16:37;;;;;;;8.00;3.17;;;10.50;99.90;;;;;;4997337;28;20045;-80
2022/12/31 04:19:02;;;;;;;7.88;3.45;;;10.60;99.90;;;;;;4990761;28;20604;-80
2022/12/31 04:21:28;;;;;;;9.40;4.00;;;10.60;99.90;;;;;;4979058;28;20053;-81
2022/12/31 04:23:54;;;;;;;9.98;4.63;;;10.70;99.90;;;;;;4975678;28;20089;-81
2022/12/31 04:26:20;;;;;;;7.40;4.20;;;10.60;99.90;;;;;;4976594;28;20050;-80
2022/12/31 04:28:45;;;;;;;10.23;4.30;;;10.70;99.90;;;;;;4978344;28;20077;-84
2022/12/31 04:31:11;;;;;;;8.98;4.10;;;10.70;99.90;;;;;;4977217;28;20475;-79
2022/12/31 04:33:37;;;;;;;9.48;4.70;;;10.70;99.90;;;;;;4978725;28;21875;-79
2022/12/31 04:36:04;;;;;;;9.88;4.25;;;10.70;99.90;;;;;;4960695;28;20097;-79
2022/12/31 04:38:31;;;;;;;11.20;4.47;;;10.70;99.90;;;;;;4994196;28;20125;-84
2022/12/31 04:43:53;;;;;;;10.32;4.70;;;10.80;99.90;;;;;;5006084;28;20082;-79
2022/12/31 04:46:22;;;;;;;7.20;3.58;;;10.80;99.90;;;;;;4985350;28;20670;-80
2022/12/31 04:48:48;;;;;;;6.78;3.53;;;10.80;99.90;;;;;;4978897;28;20081;-85
2022/12/31 04:51:14;;;;;;;7.07;3.63;;;10.80;99.90;;;;;;4965647;28;20562;-80
2022/12/31 04:53:49;;;;;;;5.32;3.00;;;10.70;99.90;;;;;;4976715;28;20050;-80
2022/12/31 04:56:15;;;;;;;7.93;4.20;;;10.80;99.90;;;;;;4992760;28;20467;-80
2022/12/31 04:58:44;;;;;;;6.82;3.28;;;10.80;99.90;;;;;;4976247;28;20044;-80
2022/12/31 05:01:12;;;;;;;11.07;4.10;;;10.70;99.90;;;;;;4975400;28;20161;-83
2022/12/31 05:03:39;;;;;;;6.55;3.00;;;10.80;99.90;;;;;;4992075;28;20081;-80
2022/12/31 05:06:11;;;;;;;9.32;3.67;;;10.70;99.90;;;;;;4978468;28;20055;-79
2022/12/31 05:08:36;;;;;;;7.90;3.35;;;10.80;99.90;;;;;;4964945;28;20474;-80
2022/12/31 05:11:02;;;;;;;5.57;3.50;;;10.80;99.90;;;;;;4984827;28;20074;-79
2022/12/31 05:13:29;;;;;;;10.38;3.60;;;10.70;99.90;;;;;;4994558;28;20047;-81
2022/12/31 05:15:54;;;;;;;4.82;3.08;;;10.70;99.90;;;;;;4987875;28;20325;-79
2022/12/31 05:18:20;;;;;;;9.65;2.95;;;10.70;99.90;;;;;;4973912;28;20632;-80
2022/12/31 05:20:46;;;;;;;6.88;3.05;;;10.70;99.90;;;;;;4955399;28;20042;-79
2022/12/31 05:23:14;;;;;;;6.35;2.67;;;10.70;99.90;;;;;;4965167;28;20046;-79
2022/12/31 05:25:42;;;;;;;8.52;3.20;;;10.70;99.90;;;;;;4973304;28;20125;-80
2022/12/31 05:28:08;;;;;;;8.15;2.85;;;10.70;99.90;;;;;;4989185;28;20686;-80
2022/12/31 05:30:34;;;;;;;6.55;3.60;;;10.70;99.90;;;;;;4987626;28;20100;-81
2022/12/31 05:32:59;;;;;;;10.82;3.60;;;10.70;99.90;;;;;;4962970;28;20054;-81
2022/12/31 05:35:25;;;;;;;7.30;3.83;;;10.70;99.90;;;;;;4990076;28;20113;-79
2022/12/31 05:37:51;;;;;;;9.52;4.18;;;10.70;99.90;;;;;;4953297;28;20047;-79
2022/12/31 05:40:17;;;;;;;12.63;5.28;;;10.80;99.90;;;;;;4989535;28;20066;-79
2022/12/31 05:42:43;;;;;;;13.70;5.05;;;10.80;99.90;;;;;;4968775;28;20252;-79
2022/12/31 05:45:12;;;;;;;10.85;4.72;;;10.80;99.90;;;;;;4990577;28;20595;-81
2022/12/31 05:47:39;;;;;;;11.90;5.90;;;10.80;99.90;;;;;;4975386;28;20085;-79
2022/12/31 05:50:06;;;;;;;9.82;5.07;;;10.80;99.90;;;;;;4974684;28;20054;-78
2022/12/31 05:52:32;;;;;;;9.75;5.03;;;10.80;99.90;;;;;;4954611;28;20093;-79
2022/12/31 05:54:57;;;;;;;9.98;5.30;;;10.80;99.90;;;;;;4959492;28;20081;-80
2022/12/31 05:57:23;;;;;;;9.30;5.03;;;10.80;99.90;;;;;;4958592;28;20504;-79
2022/12/31 05:59:52;;;;;;;11.13;5.90;;;10.80;99.90;;;;;;4958331;28;20050;-79
2022/12/31 06:02:19;;;;;;;8.35;5.50;;;10.80;99.90;;;;;;4955264;28;20731;-78
2022/12/31 06:04:44;;;;;;;8.35;5.93;;;10.80;99.90;;;;;;4952934;28;20047;-78
2022/12/31 06:07:10;;;;;;;7.18;4.85;;;10.80;99.90;;;;;;4969948;28;20370;-80
2022/12/31 06:09:36;;;;;;;11.23;6.05;;;10.80;99.90;;;;;;4978420;28;20164;-79
2022/12/31 06:12:02;;;;;;;8.55;5.03;;;10.80;99.90;;;;;;4988610;28;20047;-81
2022/12/31 06:14:27;;;;;;;9.70;6.05;;;10.80;99.90;;;;;;4982126;28;20046;-79
2022/12/31 06:16:53;;;;;;;10.40;6.30;;;10.80;99.90;;;;;;4954623;28;20057;-80
2022/12/31 06:19:19;;;;;;;11.25;6.40;;;10.80;99.90;;;;;;4987676;28;20121;-80
2022/12/31 06:21:44;;;;;;;11.55;5.75;;;10.80;99.90;;;;;;4989057;28;20492;-79
2022/12/31 06:24:10;;;;;;;8.25;5.32;;;10.80;99.90;;;;;;4973453;28;20046;-80
2022/12/31 06:26:36;;;;;;;9.05;5.10;;;10.80;99.90;;;;;;4955447;28;20137;-79
2022/12/31 06:29:02;;;;;;;7.82;4.35;;;10.80;99.90;;;;;;4955090;28;20042;-84
2022/12/31 06:31:27;;;;;;;9.13;5.10;;;10.70;99.90;;;;;;4973214;28;20814;-82
2022/12/31 06:33:53;;;;;;;5.25;4.32;;;10.70;99.90;;;;;;4973568;28;20042;-79
2022/12/31 06:36:20;;;;;;;7.80;4.70;;;10.70;99.90;;;;;;4970834;28;20042;-80
2022/12/31 06:38:46;;;;;;;7.10;3.53;;;10.70;99.90;;;;;;4988791;28;20054;-79
2022/12/31 06:41:14;;;;;;;7.50;4.07;;;10.70;99.90;;;;;;4954672;28;20078;-79
2022/12/31 06:43:41;;;;;;;6.88;3.78;;;10.70;99.90;;;;;;4980629;28;20141;-79
2022/12/31 06:46:10;;;;;;;9.90;5.15;;;10.70;99.90;;;;;;4973271;28;20053;-79
2022/12/31 06:48:36;;;;;;;8.00;4.55;;;10.70;99.90;;;;;;4967053;28;20491;-78
2022/12/31 06:51:04;;;;;;;8.93;4.82;;;10.60;99.90;;;;;;4969693;28;20492;-78
2022/12/31 06:53:30;;;;;;;6.63;4.60;;;10.70;99.90;;;;;;4971164;28;20117;-79
2022/12/31 06:55:56;;;;;;;8.43;5.28;;;10.70;99.90;;;;;;4986805;28;20484;-79
2022/12/31 06:58:22;;;;;;;8.30;5.70;;;10.60;99.90;;;;;;4953754;28;20055;-79
2022/12/31 07:01:46;;;;;;;7.97;5.03;;;10.60;99.90;;;;;;4971187;28;20052;-81
2022/12/31 07:04:46;;;;;;;7.25;4.38;;;10.60;99.90;;;;;;4892706;29;20626;-79
2022/12/31 07:07:39;;;;;;;7.95;5.05;;;10.60;99.90;;;;;;4869039;29;20055;-79
2022/12/31 07:10:40;;;;;;;7.75;4.80;;;10.60;99.90;;;;;;4977642;28;20050;-80
2022/12/31 07:13:15;;;;;;;7.07;4.72;;;10.60;99.90;;;;;;4984368;28;20053;-85
2022/12/31 07:15:52;;;;;;;8.93;5.70;;;10.60;99.90;;;;;;4988958;28;20077;-80
2022/12/31 07:18:58;;;;;;;8.85;5.18;;;10.60;99.90;;;;;;4972757;28;20050;-80
2022/12/31 07:21:37;;;;;;;9.45;4.78;;;10.60;99.90;;;;;;4985464;28;20057;-80
2022/12/31 07:24:05;;;;;;;10.85;5.85;;;10.60;99.90;;;;;;4972577;28;20128;-79
2022/12/31 07:26:55;;;;;;;8.25;4.82;;;10.60;99.90;;;;;;4988261;28;20047;-78
2022/12/31 07:29:55;;;;;;;8.38;5.55;;;10.60;99.90;;;;;;4988594;28;20039;-79
2022/12/31 07:32:29;;;;;;;7.38;5.13;;;10.60;99.90;;;;;;4965138;28;20046;-79
2022/12/31 07:35:23;;;;;;;7.20;4.93;;;10.60;99.90;;;;;;4957852;28;20050;-79
2022/12/31 07:38:15;;;;;;;8.77;5.28;;;10.60;99.90;;;;;;4976176;28;20174;-80
2022/12/31 07:41:11;;;;;;;11.18;5.97;;;10.60;99.90;;;;;;4973401;28;20048;-80
2022/12/31 07:43:50;;;;;;;8.65;4.80;;;10.60;99.90;;;;;;4982860;28;20576;-78
2022/12/31 07:46:38;;;;;;;8.32;4.93;;;10.70;99.90;;;;;;4979900;28;20119;-79
2022/12/31 07:49:09;;;;;;;7.20;4.28;;;10.60;99.90;;;;;;4986389;28;20552;-79
2022/12/31 07:51:35;;;;;;;5.20;3.42;;;10.70;99.90;;;;;;4989500;28;20054;-79
2022/12/31 07:54:01;;;;;;;5.65;3.17;;;10.70;99.90;;;;;;4994005;28;20046;-81
2022/12/31 07:56:28;;;;;;;3.55;2.58;;;10.70;99.90;;;;;;4956089;28;20055;-81
2022/12/31 07:58:57;;;;;;;6.47;3.15;;;10.70;99.90;;;;;;4992417;28;20047;-81
2022/12/31 08:01:35;;;;;;;6.78;3.80;;;10.80;99.90;;;;;;4983829;28;20057;-79
2022/12/31 08:04:23;;;;;;;5.47;3.38;;;10.80;99.90;;;;;;4973577;28;20054;-80
2022/12/31 08:07:14;;;;;;;5.35;3.40;;;10.80;99.90;;;;;;4970841;28;20057;-81
2022/12/31 08:09:58;;;;;;;5.20;3.03;;;10.80;99.90;;;;;;4982667;28;20046;-76
2022/12/31 08:12:29;;;;;;;4.93;3.13;;;10.90;99.90;;;;;;4989974;28;20054;-82
2022/12/31 08:14:55;;;;;;;4.03;2.58;;;10.90;99.90;;;;;;4982786;28;20428;-81
2022/12/31 08:17:21;;;;;;;4.90;3.05;;;10.90;99.90;;;;;;4976027;28;20066;-83
2022/12/31 08:19:47;;;;;;;4.57;2.78;;;10.90;99.90;;;;;;4973678;28;20142;-84
2022/12/31 08:22:41;;;;;;;4.50;2.88;;;10.90;99.90;;;;;;4971732;28;20876;-83
2022/12/31 08:25:31;;;;;;;4.22;3.28;;;11.00;99.90;;;;;;4976437;28;20117;-83
2022/12/31 08:28:09;;;;;;;4.45;3.28;;;11.00;99.90;;;;;;4993932;28;20092;-82
2022/12/31 08:30:46;;;;;;;5.30;3.22;;;11.00;99.90;;;;;;4992259;28;20046;-82
2022/12/31 08:33:32;;;;;;;6.30;3.40;;;11.00;99.90;;;;;;4993518;28;20166;-83
2022/12/31 08:36:43;;;;;;;4.45;3.17;;;11.10;99.90;;;;;;4985880;28;20049;-84
2022/12/31 08:39:46;;;;;;;5.20;3.50;;;11.10;99.90;;;;;;4942595;28;20061;-81
2022/12/31 08:43:01;;;;;;;9.00;4.40;;;11.10;99.90;;;;;;4991110;28;20100;-82
2022/12/31 08:45:36;;;;;;;7.55;4.40;;;11.20;99.90;;;;;;4985863;28;20063;-82
2022/12/31 08:48:05;;;;;;;8.45;4.90;;;11.20;99.90;;;;;;4972960;28;20043;-82
2022/12/31 08:50:31;;;;;;;9.18;5.50;;;11.20;99.90;;;;;;4970897;28;20054;-82
2022/12/31 08:53:00;;;;;;;9.35;4.80;;;11.30;99.90;;;;;;4966963;28;20101;-82
2022/12/31 08:55:29;;;;;;;8.98;5.57;;;11.30;99.90;;;;;;4962038;28;20054;-82
2022/12/31 08:58:25;;;;;;;6.68;5.07;;;11.40;99.90;;;;;;4969647;28;20058;-83
2022/12/31 09:00:55;;;;;;;9.85;5.28;;;11.40;99.90;;;;;;4993345;28;20054;-83
2022/12/31 09:03:55;;;;;;;7.70;5.10;;;11.50;99.90;;;;;;4959232;28;20062;-77
2022/12/31 09:06:32;;;;;;;7.88;5.03;;;11.50;99.90;;;;;;4987010;28;20436;-81
2022/12/31 09:09:16;;;;;;;6.25;4.93;;;11.60;99.90;;;;;;4967932;28;20509;-86
2022/12/31 09:12:10;;;;;;;7.20;5.03;;;11.70;99.90;;;;;;4978523;28;20035;-81
2022/12/31 09:14:55;;;;;;;6.20;5.30;;;11.80;99.90;;;;;;4973249;28;20045;-82
2022/12/31 09:17:46;;;;;;;7.20;5.05;;;11.90;99.90;;;;;;4962851;28;20374;-81
2022/12/31 09:20:24;;;;;;;8.43;5.80;;;12.00;99.90;;;;;;4988810;28;20054;-82
2022/12/31 09:22:50;;;;;;;6.55;4.88;;;12.00;99.90;;;;;;4975694;28;20042;-82
2022/12/31 09:25:18;;;;;;;31.38;15.23;;;12.10;99.90;;;;;;4989891;28;20049;-82
2022/12/31 09:28:04;;;;;;;9.40;7.20;;;12.10;99.90;;;;;;4966742;28;20061;-82
2022/12/31 09:30:44;;;;;;;13.52;8.68;;;12.20;99.90;;;;;;4975670;28;20090;-82
2022/12/31 09:33:32;;;;;;;5.47;4.10;;;12.20;99.90;;;;;;4973835;28;20043;-81
2022/12/31 09:36:04;;;;;;;7.38;3.95;;;12.20;99.90;;;;;;4973669;28;20142;-84
2022/12/31 09:38:51;;;;;;;5.30;3.80;;;12.20;99.90;;;;;;4982110;28;20093;-84
2022/12/31 09:41:35;;;;;;;5.88;3.30;;;12.20;99.90;;;;;;4968611;28;20042;-83
2022/12/31 09:44:22;;;;;;;5.40;3.08;;;12.30;99.90;;;;;;4972410;28;20049;-81
2022/12/31 09:47:19;;;;;;;8.05;2.78;;;12.30;99.90;;;;;;4970369;28;20046;-83
2022/12/31 09:50:14;;;;;;;4.10;2.50;;;12.30;99.90;;;;;;4988370;28;20576;-81
2022/12/31 09:52:52;;;;;;;2.65;1.70;;;12.30;99.90;;;;;;4974777;28;20563;-81
2022/12/31 09:55:34;;;;;;;2.85;1.50;;;12.30;99.90;;;;;;4991459;28;20129;-81
2022/12/31 09:58:25;;;;;;;2.88;1.92;;;12.30;99.90;;;;;;4968256;28;20078;-80
2022/12/31 10:01:15;;;;;;;2.72;1.60;;;12.30;99.90;;;;;;4989364;28;20578;-81
2022/12/31 10:03:59;;;;;;;3.58;1.80;;;12.40;99.90;;;;;;4984416;28;20480;-80
2022/12/31 10:06:40;;;;;;;7.00;6.07;;;12.40;99.90;;;;;;4983255;28;20401;-81
2022/12/31 10:09:27;;;;;;;4.53;2.75;;;12.40;99.90;;;;;;4974626;28;20476;-80
2022/12/31 10:12:05;;;;;;;3.95;2.88;;;12.50;99.90;;;;;;4970411;28;20037;-80
2022/12/31 10:14:49;;;;;;;3.38;1.92;;;12.50;99.90;;;;;;4970416;28;20066;-81
2022/12/31 10:17:27;;;;;;;3.70;1.48;;;12.50;99.90;;;;;;4975149;28;20072;-82
2022/12/31 10:20:14;;;;;;;3.35;1.77;;;12.50;99.90;;;;;;4975193;28;20259;-83
2022/12/31 10:22:52;;;;;;;3.13;2.33;;;12.50;99.90;;;;;;4963332;28;20046;-81
2022/12/31 10:25:43;;;;;;;2.90;1.77;;;12.50;99.90;;;;;;4990636;28;20062;-77
2022/12/31 10:28:33;;;;;;;4.45;1.83;;;12.50;99.90;;;;;;4987596;28;20046;-85
2022/12/31 10:31:11;;;;;;;2.72;1.25;;;12.50;99.90;;;;;;4973271;28;20053;-80
2022/12/31 10:34:21;;;;;;;6.13;1.92;;;12.60;99.90;;;;;;4974164;28;20046;-85
2022/12/31 10:37:05;;;;;;;7.15;2.53;;;12.60;99.90;;;;;;4947927;28;20506;-79
2022/12/31 10:39:39;;;;;;;4.55;2.65;;;12.60;99.90;;;;;;4987520;28;20125;-79
2022/12/31 10:42:21;;;;;;;4.20;1.55;;;12.70;99.90;;;;;;4983759;28;20073;-78
2022/12/31 10:45:24;;;;;;;3.47;1.00;;;12.70;99.90;;;;;;4985427;28;20058;-80
2022/12/31 10:48:15;;;;;;;6.20;1.60;;;12.80;99.90;;;;;;4990832;28;20034;-78
2022/12/31 10:51:19;;;;;;;3.88;1.83;;;12.80;99.90;;;;;;4990965;28;20438;-81
2022/12/31 10:54:04;;;;;;;5.40;1.08;;;12.80;99.90;;;;;;4972286;28;20547;-79
2022/12/31 10:56:50;;;;;;;2.63;1.30;;;12.80;99.90;;;;;;4991313;28;20129;-79
2022/12/31 10:59:49;;;;;;;4.63;1.10;;;12.90;99.90;;;;;;4988775;28;20086;-81
2022/12/31 11:02:39;;;;;;;4.78;1.50;;;12.90;99.90;;;;;;4991186;28;20140;-81
2022/12/31 11:05:32;;;;;;;5.63;1.40;;;12.80;99.90;;;;;;4991584;28;20050;-81
2022/12/31 11:08:17;;;;;;;6.80;3.70;;;12.80;99.90;;;;;;4984820;28;20104;-83
2022/12/31 11:11:05;;;;;;;7.18;3.05;;;12.80;99.90;;;;;;4974467;28;20076;-83
2022/12/31 11:13:52;;;;;;;5.82;2.22;;;12.80;99.90;;;;;;4966519;28;20058;-82
2022/12/31 11:16:37;;;;;;;10.43;3.45;;;12.80;99.90;;;;;;4951713;28;20055;-81
2022/12/31 11:19:30;;;;;;;6.38;1.92;;;12.80;99.90;;;;;;4969296;28;20042;-79
2022/12/31 11:22:15;;;;;;;9.52;3.53;;;12.80;99.90;;;;;;4966866;28;20042;-82
2022/12/31 11:25:11;;;;;;;12.18;3.67;;;12.80;99.90;;;;;;4979551;28;20054;-79
2022/12/31 11:27:40;;;;;;;10.32;4.22;;;12.80;99.90;;;;;;4978671;28;20073;-77
2022/12/31 11:30:24;;;;;;;5.82;2.30;;;12.80;99.90;;;;;;4987685;28;20050;-83
2022/12/31 11:33:05;;;;;;;7.88;3.58;;;12.80;99.90;;;;;;4964040;28;20078;-83
2022/12/31 11:36:00;;;;;;;5.47;3.63;;;12.80;99.90;;;;;;4975986;28;20057;-82
2022/12/31 11:38:35;;;;;;;3.83;2.40;;;12.80;99.90;;;;;;4986087;28;20089;-83
2022/12/31 11:41:10;;;;;;;4.85;2.20;;;12.80;99.90;;;;;;4969517;28;20104;-82
2022/12/31 11:43:53;;;;;;;2.90;1.55;;;12.80;99.90;;;;;;4989480;28;20060;-82
2022/12/31 11:46:46;;;;;;;2.33;1.88;;;12.80;99.90;;;;;;4968988;28;20488;-84
2022/12/31 11:49:12;;;;;;;4.70;2.05;;;12.80;99.90;;;;;;4974477;28;20047;-85
2022/12/31 11:52:02;;;;;;;4.53;1.73;;;12.80;99.90;;;;;;4984323;28;20050;-84
2022/12/31 11:54:51;;;;;;;8.18;2.85;;;12.90;99.90;;;;;;4965350;28;20419;-84
2022/12/31 11:57:29;;;;;;;3.13;2.17;;;12.80;99.90;;;;;;4971587;28;20061;-83
2022/12/31 12:00:20;;;;;;;4.22;3.58;;;12.90;99.90;;;;;;4969233;28;20103;-82
2022/12/31 12:02:54;;;;;;;6.93;4.18;;;12.90;99.90;;;;;;4970842;28;20054;-87
2022/12/31 12:05:22;;;;;;;5.30;3.40;;;12.90;99.90;;;;;;4967530;28;20106;-83
2022/12/31 12:07:49;;;;;;;9.63;4.03;;;12.90;99.90;;;;;;4988761;28;20053;-87
2022/12/31 12:10:23;;;;;;;16.05;14.52;;;12.90;99.90;;;;;;4987485;28;20074;-81
2022/12/31 12:12:49;;;;;;;50.10;44.70;;;12.90;99.90;;;;;;4972522;28;20058;-85
2022/12/31 12:15:34;;;;;;;11.20;7.35;;;12.90;99.90;;;;;;4955369;28;20054;-81
2022/12/31 12:18:07;;;;;;;36.80;32.05;;;12.90;99.90;;;;;;4972693;28;20050;-84
2022/12/31 12:20:37;;;;;;;16.17;13.18;;;12.90;99.90;;;;;;4973250;28;20042;-81
2022/12/31 12:23:15;;;;;;;18.15;16.52;;;13.00;99.90;;;;;;4984892;28;20042;-80
2022/12/31 12:25:43;;;;;;;34.53;30.05;;;13.00;99.90;;;;;;4974001;28;20496;-79
2022/12/31 12:28:23;;;;;;;15.13;12.10;;;13.00;99.90;;;;;;4973386;28;20046;-82
2022/12/31 12:31:01;;;;;;;20.10;16.77;;;13.00;99.90;;;;;;4972967;28;20480;-82
2022/12/31 12:33:29;;;;;;;40.83;30.00;;;13.10;99.90;;;;;;4989634;28;20046;-80
2022/12/31 12:36:09;;;;;;;21.13;14.68;;;13.10;99.90;;;;;;4988502;28;20042;-83
2022/12/31 12:38:35;;;;;;;12.15;6.25;;;13.20;99.90;;;;;;4956811;28;20442;-88
2022/12/31 12:41:05;;;;;;;16.30;10.45;;;13.20;99.90;;;;;;4957121;28;20042;-82
2022/12/31 12:43:35;;;;;;;6.78;5.97;;;13.20;99.90;;;;;;4975488;28;20082;-84
2022/12/31 12:46:06;;;;;;;119.80;76.90;;;13.30;99.90;;;;;;4967975;28;20054;-83
2022/12/31 12:48:44;;;;;;;6.38;4.43;;;13.30;99.90;;;;;;4974071;28;20078;-83
2022/12/31 12:51:41;;;;;;;28.75;19.48;;;13.20;99.90;;;;;;4963891;28;20081;-83
2022/12/31 12:54:15;;;;;;;7.65;3.92;;;13.20;99.90;;;;;;4971509;28;20078;-80
2022/12/31 12:57:11;;;;;;;15.55;11.13;;;13.20;99.90;;;;;;4988465;28;20046;-80
2022/12/31 13:00:19;;;;;;;9.98;4.85;;;13.20;99.90;;;;;;4989753;28;20046;-79
2022/12/31 13:03:24;;;;;;;11.05;3.85;;;13.20;99.90;;;;;;4974916;28;20460;-78
2022/12/31 13:06:25;;;;;;;6.97;3.33;;;13.10;99.90;;;;;;4988138;28;20046;-79
2022/12/31 13:09:28;;;;;;;10.27;5.07;;;13.00;99.90;;;;;;4962855;28;20094;-81
2022/12/31 13:12:06;;;;;;;7.45;4.47;;;13.00;99.90;;;;;;4953010;28;20109;-84
2022/12/31 13:14:43;;;;;;;6.38;2.30;;;13.00;99.90;;;;;;4985642;28;20050;-80
2022/12/31 13:17:31;;;;;;;9.32;3.25;;;13.00;99.90;;;;;;4969552;28;20120;-83
2022/12/31 13:20:40;;;;;;;13.27;6.47;;;13.00;99.90;;;;;;4986168;28;20050;-85
2022/12/31 13:23:29;;;;;;;15.88;6.35;;;13.00;99.90;;;;;;4967548;28;20059;-82
2022/12/31 13:26:15;;;;;;;7.80;3.08;;;13.00;99.90;;;;;;5008048;28;20298;-83
2022/12/31 13:28:45;;;;;;;8.63;3.85;;;13.00;99.90;;;;;;4993084;28;20046;-84
2022/12/31 13:31:25;;;;;;;11.73;8.70;;;12.90;99.90;;;;;;4991859;28;20412;-85
2022/12/31 13:34:14;;;;;;;6.75;3.20;;;12.90;99.90;;;;;;4977633;28;20579;-84
2022/12/31 13:37:10;;;;;;;22.02;15.18;;;12.90;99.90;;;;;;4983241;28;20456;-84
2022/12/31 13:39:39;;;;;;;10.40;2.67;;;12.90;99.90;;;;;;4968358;28;20100;-79
2022/12/31 13:42:40;;;;;;;6.47;4.10;;;12.80;99.90;;;;;;4970816;28;20153;-79
2022/12/31 13:45:46;;;;;;;11.40;3.35;;;12.80;99.90;;;;;;4985229;28;20062;-88
2022/12/31 13:48:31;;;;;;;4.68;3.28;;;12.80;99.90;;;;;;4964670;28;20065;-85